Time;durP1;ratioP1;P1;durP2;ratioP2;P2;SDS_P1;SDS_P2;PMS_P1;PMS_P2;Temp;Humidity;BMP_temperature;BMP_pressure;BME280_temperature;BME280_humidity;BME280_pressure;Samples;Min_cycle;Max_cycle;Signal;HPM_P1;HPM_P2
2022/09/20 00:00:16;;;;;;;10.47;9.27;;;;;;;8.55;100.00;97208.81;4996058;28;20272;-73
2022/09/20 00:02:41;;;;;;;11.60;10.83;;;;;;;8.56;100.00;97198.19;5011273;28;20196;-73
2022/09/20 00:05:07;;;;;;;10.33;9.27;;;;;;;8.50;100.00;97201.59;5006576;28;20211;-72
2022/09/20 00:07:32;;;;;;;9.60;8.63;;;;;;;8.54;100.00;97199.38;5014812;28;20207;-72
2022/09/20 00:09:58;;;;;;;9.10;8.40;;;;;;;8.53;100.00;97195.97;5014425;28;20518;-72
2022/09/20 00:12:23;;;;;;;10.20;9.30;;;;;;;8.50;100.00;97204.22;5000099;28;20191;-73
2022/09/20 00:14:48;;;;;;;9.33;8.57;;;;;;;8.54;100.00;97194.16;4995222;28;20188;-73
2022/09/20 00:17:14;;;;;;;9.03;8.10;;;;;;;8.58;100.00;97198.75;5014592;28;20242;-72
2022/09/20 00:19:39;;;;;;;9.90;8.03;;;;;;;8.57;100.00;97188.53;5013922;28;20187;-72
2022/09/20 00:22:05;;;;;;;8.53;7.70;;;;;;;8.68;100.00;97190.53;5014067;28;20199;-72
2022/09/20 00:24:30;;;;;;;8.30;7.67;;;;;;;8.59;100.00;97195.16;5014401;28;20215;-72
2022/09/20 00:26:56;;;;;;;8.63;7.80;;;;;;;8.49;100.00;97186.94;4999097;28;20190;-73
2022/09/20 00:29:21;;;;;;;9.27;7.77;;;;;;;8.50;100.00;97185.13;5010212;28;20230;-73
2022/09/20 00:31:46;;;;;;;8.13;7.33;;;;;;;8.39;100.00;97193.56;5001097;28;20706;-72
2022/09/20 00:36:56;;;;;;;11.70;10.67;;;;;;;8.41;100.00;97194.19;5011668;28;20249;-72
2022/09/20 00:39:21;;;;;;;9.37;8.50;;;;;;;8.43;100.00;97197.38;5014092;28;20195;-72
2022/09/20 00:41:46;;;;;;;8.90;7.37;;;;;;;8.44;100.00;97197.19;4996951;28;20589;-73
2022/09/20 00:44:40;;;;;;;8.03;7.13;;;;;;;8.43;100.00;97192.16;4994799;28;20609;-72
2022/09/20 00:47:31;;;;;;;7.63;7.03;;;;;;;8.31;100.00;97198.00;4995228;28;20180;-72
2022/09/20 00:50:04;;;;;;;8.63;8.03;;;;;;;8.37;100.00;97190.34;4961600;28;20196;-72
2022/09/20 00:52:31;;;;;;;9.43;7.57;;;;;;;8.35;100.00;97190.59;4994906;28;20208;-72
2022/09/20 00:54:58;;;;;;;7.90;7.23;;;;;;;8.33;100.00;97189.97;4994930;28;20218;-74
2022/09/20 00:57:23;;;;;;;7.93;7.33;;;;;;;8.33;100.00;97184.75;5002921;28;20192;-71
2022/09/20 00:59:50;;;;;;;8.30;7.57;;;;;;;8.29;100.00;97186.13;4994581;28;20215;-72
2022/09/20 01:02:18;;;;;;;9.07;8.17;;;;;;;8.32;100.00;97178.72;4998865;28;20187;-71
2022/09/20 01:04:45;;;;;;;7.57;7.00;;;;;;;8.32;100.00;97191.78;5013193;28;20335;-73
2022/09/20 01:07:14;;;;;;;8.63;7.80;;;;;;;8.39;100.00;97183.13;5002175;28;20188;-72
2022/09/20 01:09:39;;;;;;;10.07;9.10;;;;;;;8.43;100.00;97179.91;4994838;28;20266;-72
2022/09/20 01:12:11;;;;;;;9.47;8.70;;;;;;;8.48;100.00;97179.28;5005199;28;20541;-72
2022/09/20 01:14:39;;;;;;;9.23;8.50;;;;;;;8.44;100.00;97175.50;5013457;28;20194;-72
2022/09/20 01:17:06;;;;;;;11.13;10.43;;;;;;;8.42;100.00;97183.50;5002400;28;20697;-72
2022/09/20 01:19:54;;;;;;;12.83;11.93;;;;;;;8.43;100.00;97177.28;4995829;28;20256;-72
2022/09/20 01:22:49;;;;;;;13.33;12.37;;;;;;;8.47;100.00;97183.72;5006364;28;20259;-72
2022/09/20 01:25:35;;;;;;;14.97;13.13;;;;;;;8.57;100.00;97183.31;4994038;28;20175;-72
2022/09/20 01:28:01;;;;;;;12.50;11.63;;;;;;;8.53;100.00;97184.72;4996456;28;20697;-72
2022/09/20 01:30:38;;;;;;;10.40;9.50;;;;;;;8.49;100.00;97176.47;5012085;28;20238;-72
2022/09/20 01:33:22;;;;;;;8.20;7.63;;;;;;;8.61;100.00;97184.50;5013509;28;20207;-72
2022/09/20 01:35:52;;;;;;;9.37;8.63;;;;;;;8.63;100.00;97190.34;5014062;28;20211;-72
2022/09/20 01:38:38;;;;;;;9.83;8.97;;;;;;;8.59;100.00;97182.09;4995844;28;20195;-72
2022/09/20 01:41:22;;;;;;;8.63;7.83;;;;;;;8.58;100.00;97180.47;5012718;28;20624;-72
2022/09/20 01:43:52;;;;;;;7.87;7.17;;;;;;;8.52;100.00;97186.53;5008092;28;20182;-72
2022/09/20 01:46:31;;;;;;;7.90;7.30;;;;;;;8.58;100.00;97184.94;5013359;28;20535;-75
2022/09/20 01:49:33;;;;;;;10.07;7.77;;;;;;;8.63;100.00;97174.66;5005657;28;20183;-76
2022/09/20 01:52:14;;;;;;;8.17;7.67;;;;;;;8.69;100.00;97179.06;5005922;28;20624;-72
2022/09/20 01:55:07;;;;;;;13.23;12.30;;;;;;;8.54;100.00;97173.25;5012808;28;20667;-73
2022/09/20 01:57:41;;;;;;;15.90;14.70;;;;;;;8.66;100.00;97174.25;5013266;28;20182;-72
2022/09/20 02:00:09;;;;;;;15.70;14.70;;;;;;;8.52;100.00;97181.31;5013157;28;20288;-72
2022/09/20 02:03:01;;;;;;;15.67;14.47;;;;;;;8.56;100.00;97176.47;4995505;28;20237;-73
2022/09/20 02:06:02;;;;;;;15.83;14.57;;;;;;;8.56;100.00;97181.69;5008874;28;20179;-72
2022/09/20 02:08:45;;;;;;;15.23;14.20;;;;;;;8.56;100.00;97177.28;4991703;28;20199;-73
2022/09/20 02:11:21;;;;;;;14.93;13.83;;;;;;;8.59;100.00;97178.66;5005692;28;20215;-72
2022/09/20 02:14:08;;;;;;;14.93;13.53;;;;;;;8.67;100.00;97184.50;5012898;28;20842;-72
2022/09/20 02:16:48;;;;;;;10.37;9.57;;;;;;;8.66;100.00;97179.47;5009015;28;20179;-72
2022/09/20 02:19:32;;;;;;;11.37;9.90;;;;;;;8.62;100.00;97175.66;5012939;28;20179;-72
2022/09/20 02:22:03;;;;;;;11.67;10.77;;;;;;;8.66;100.00;97164.59;4995431;28;20194;-72
2022/09/20 02:24:40;;;;;;;10.70;9.93;;;;;;;8.68;100.00;97175.66;5013023;28;20199;-73
2022/09/20 02:27:31;;;;;;;10.57;9.53;;;;;;;8.61;100.00;97177.47;5013041;28;20201;-72
2022/09/20 02:30:14;;;;;;;9.80;8.77;;;;;;;8.59;100.00;97166.41;5008433;28;20219;-72
2022/09/20 02:33:07;;;;;;;10.63;9.80;;;;;;;8.75;100.00;97173.81;5012754;28;20277;-73
2022/09/20 02:35:36;;;;;;;9.93;9.23;;;;;;;8.74;100.00;97171.41;5010399;28;20181;-72
2022/09/20 02:38:25;;;;;;;14.53;13.63;;;;;;;8.63;100.00;97172.84;5012573;28;20183;-74
2022/09/20 02:41:15;;;;;;;12.00;10.87;;;;;;;8.69;100.00;97172.00;5013085;28;20179;-72
2022/09/20 02:43:53;;;;;;;7.13;6.63;;;;;;;8.82;100.00;97173.78;5000384;28;20525;-73
2022/09/20 02:46:39;;;;;;;7.10;6.50;;;;;;;8.60;100.00;97172.44;5012965;28;20187;-72
2022/09/20 02:49:17;;;;;;;7.87;6.97;;;;;;;8.73;100.00;97181.06;5012477;28;20229;-72
2022/09/20 02:51:55;;;;;;;6.97;6.37;;;;;;;8.83;100.00;97179.81;5012777;28;20190;-73
2022/09/20 02:54:40;;;;;;;7.80;6.43;;;;;;;8.77;100.00;97178.84;5011976;28;20572;-72
2022/09/20 02:57:27;;;;;;;7.87;6.87;;;;;;;8.86;100.00;97180.22;4982945;28;20192;-72
2022/09/20 03:00:01;;;;;;;7.17;6.57;;;;;;;8.84;100.00;97177.03;5010184;28;20191;-72
2022/09/20 03:02:50;;;;;;;6.57;6.03;;;;;;;8.79;100.00;97181.25;5012498;28;20242;-72
2022/09/20 03:05:26;;;;;;;6.93;6.23;;;;;;;8.98;100.00;97180.38;5012278;28;20207;-72
2022/09/20 03:08:22;;;;;;;8.73;7.97;;;;;;;9.01;100.00;97185.22;5012246;28;20202;-72
2022/09/20 03:10:53;;;;;;;8.47;7.70;;;;;;;8.97;100.00;97179.56;4991195;28;20183;-72
2022/09/20 03:13:46;;;;;;;6.27;5.87;;;;;;;8.87;100.00;97183.63;5012274;28;20199;-72
2022/09/20 03:16:23;;;;;;;6.90;6.13;;;;;;;8.91;100.00;97184.84;5012286;28;20267;-72
2022/09/20 03:19:20;;;;;;;7.53;6.33;;;;;;;8.85;100.00;97185.66;5012421;28;20186;-72
2022/09/20 03:22:24;;;;;;;6.87;5.97;;;;;;;8.81;100.00;97190.47;5012591;28;20199;-72
2022/09/20 03:24:58;;;;;;;6.43;5.83;;;;;;;8.84;100.00;97189.28;5011941;28;20186;-72
2022/09/20 03:27:35;;;;;;;7.07;6.43;;;;;;;8.87;100.00;97187.03;5009952;28;20621;-72
2022/09/20 03:30:00;;;;;;;6.23;5.60;;;;;;;8.68;100.00;97188.72;5011728;28;20639;-72
2022/09/20 03:33:12;;;;;;;8.10;6.10;;;;;;;8.81;100.00;97187.88;5011989;28;20222;-72
2022/09/20 03:36:17;;;;;;;7.60;6.90;;;;;;;8.82;100.00;97186.88;4912790;29;20686;-72
2022/09/20 03:39:11;;;;;;;8.37;7.73;;;;;;;8.93;100.00;97188.84;4913376;29;20183;-72
2022/09/20 03:41:47;;;;;;;9.47;6.93;;;;;;;8.94;100.00;97195.69;4863339;29;20205;-72
2022/09/20 03:44:21;;;;;;;6.07;5.57;;;;;;;8.91;100.00;97198.72;4913454;29;20209;-72
2022/09/20 03:46:50;;;;;;;6.47;6.07;;;;;;;8.96;100.00;97198.91;4913482;29;20326;-72
2022/09/20 03:49:40;;;;;;;7.33;6.63;;;;;;;8.74;100.00;97197.56;4915610;29;20195;-72
2022/09/20 03:52:34;;;;;;;6.57;5.37;;;;;;;8.66;100.00;97200.38;4916753;29;20182;-70
2022/09/20 03:55:37;;;;;;;7.67;6.77;;;;;;;8.39;100.00;97194.38;4916385;29;20206;-72
2022/09/20 03:58:47;;;;;;;11.83;6.60;;;;;;;8.43;100.00;97200.81;4910132;29;20326;-69
2022/09/20 04:01:13;;;;;;;6.87;6.17;;;;;;;8.55;100.00;97195.75;4916580;29;20187;-72
2022/09/20 04:03:48;;;;;;;8.33;6.13;;;;;;;8.73;100.00;97199.38;4916216;29;20252;-72
2022/09/20 04:06:33;;;;;;;7.37;5.77;;;;;;;8.75;100.00;97202.56;4958683;28;20615;-72
2022/09/20 04:09:10;;;;;;;6.83;6.17;;;;;;;8.83;100.00;97204.16;4997427;28;20671;-72
2022/09/20 04:11:56;;;;;;;6.10;5.50;;;;;;;8.76;100.00;97201.56;5008027;28;20186;-72
2022/09/20 04:14:33;;;;;;;6.57;5.50;;;;;;;8.79;100.00;97205.59;5014787;28;20507;-73
2022/09/20 04:17:14;;;;;;;7.43;5.47;;;;;;;8.82;100.00;97206.97;5015197;28;20175;-72
2022/09/20 04:19:57;;;;;;;7.50;5.77;;;;;;;8.76;100.00;97204.16;5015087;28;20202;-72
2022/09/20 04:22:27;;;;;;;6.83;5.87;;;;;;;8.86;100.00;97211.56;5014990;28;20190;-72
2022/09/20 04:24:59;;;;;;;7.17;6.43;;;;;;;8.80;100.00;97206.38;5015261;28;20201;-72
2022/09/20 04:27:33;;;;;;;8.03;6.97;;;;;;;8.80;100.00;97203.78;5009198;28;20592;-72
2022/09/20 04:30:19;;;;;;;8.87;7.30;;;;;;;8.80;100.00;97203.78;5014469;28;20301;-72
2022/09/20 04:33:00;;;;;;;7.07;6.47;;;;;;;8.72;100.00;97210.00;4999949;28;20191;-72
2022/09/20 04:38:20;;;;;;;6.53;5.93;;;;;;;8.91;100.00;97209.19;5014298;28;20230;-71
2022/09/20 04:41:15;;;;;;;9.93;5.60;;;;;;;8.83;100.00;97213.81;5014511;28;20659;-71
2022/09/20 04:44:39;;;;;;;10.23;5.20;;;;;;;8.80;100.00;97211.63;5014695;28;20252;-72
2022/09/20 04:47:41;;;;;;;5.47;4.97;;;;;;;8.83;100.00;97216.41;5000740;28;20201;-72
2022/09/20 04:50:21;;;;;;;10.50;6.50;;;;;;;8.70;100.00;97215.44;5007451;28;20274;-72
2022/09/20 04:53:22;;;;;;;9.80;9.10;;;;;;;8.62;100.00;97220.88;5014519;28;20202;-73
2022/09/20 04:55:50;;;;;;;14.27;13.40;;;;;;;8.57;100.00;97223.31;4989469;28;20730;-73
2022/09/20 04:58:36;;;;;;;16.07;15.07;;;;;;;8.59;100.00;97221.28;5014181;28;20190;-73
2022/09/20 05:01:36;;;;;;;16.03;14.83;;;;;;;8.47;100.00;97225.50;5013757;28;20274;-74
2022/09/20 05:04:59;;;;;;;14.17;12.97;;;;;;;8.54;100.00;97226.31;5014011;28;20180;-73
2022/09/20 05:07:47;;;;;;;14.17;12.87;;;;;;;8.47;100.00;97233.34;4914778;29;20194;-73
2022/09/20 05:10:15;;;;;;;12.07;11.03;;;;;;;8.37;100.00;97235.56;4912692;29;20187;-73
2022/09/20 05:13:12;;;;;;;13.20;11.97;;;;;;;8.31;100.00;97238.97;4915078;29;20294;-71
2022/09/20 05:16:03;;;;;;;12.93;11.77;;;;;;;8.37;100.00;97235.56;4899439;29;20203;-72
2022/09/20 05:18:34;;;;;;;13.00;11.73;;;;;;;8.30;100.00;97240.78;4900578;29;20193;-71
2022/09/20 05:21:26;;;;;;;12.13;10.97;;;;;;;8.35;100.00;97234.97;4914998;29;20190;-72
2022/09/20 05:23:55;;;;;;;12.90;11.77;;;;;;;8.21;100.00;97233.31;4910782;29;20674;-72
2022/09/20 05:26:23;;;;;;;15.57;11.47;;;;;;;8.29;100.00;97244.38;4914690;29;20195;-72
2022/09/20 05:29:08;;;;;;;11.00;9.90;;;;;;;8.45;100.00;97243.22;4908590;29;20247;-73
2022/09/20 05:31:40;;;;;;;14.03;10.53;;;;;;;8.39;100.00;97251.84;4895669;29;20191;-72
2022/09/20 05:34:16;;;;;;;12.50;10.03;;;;;;;8.43;100.00;97247.81;4895926;29;20219;-72
2022/09/20 05:36:52;;;;;;;13.23;9.83;;;;;;;8.28;100.00;97255.84;4901311;28;20183;-72
2022/09/20 05:39:31;;;;;;;11.17;9.27;;;;;;;8.23;100.00;97252.22;4994040;28;20175;-73
2022/09/20 05:42:15;;;;;;;10.00;9.10;;;;;;;8.36;100.00;97260.06;4992945;28;20184;-72
2022/09/20 05:44:49;;;;;;;13.40;9.90;;;;;;;8.33;100.00;97255.25;4993529;28;20594;-72
2022/09/20 05:47:23;;;;;;;11.33;10.27;;;;;;;8.42;100.00;97250.63;4992177;28;20175;-72
2022/09/20 05:50:22;;;;;;;11.20;10.13;;;;;;;8.45;100.00;97253.66;4993667;28;20271;-75
2022/09/20 05:52:53;;;;;;;11.53;10.50;;;;;;;8.47;100.00;97253.47;4987930;28;20199;-71
2022/09/20 05:55:46;;;;;;;11.30;10.27;;;;;;;8.57;100.00;97257.28;4993117;28;20188;-72
2022/09/20 05:58:38;;;;;;;14.93;13.73;;;;;;;8.82;100.00;97267.09;4993139;28;20215;-70
2022/09/20 06:01:29;;;;;;;16.57;14.57;;;;;;;8.83;100.00;97268.69;4992759;28;20243;-71
2022/09/20 06:04:06;;;;;;;12.30;11.17;;;;;;;8.73;100.00;97263.88;4986726;28;20168;-72
2022/09/20 06:06:57;;;;;;;9.43;8.53;;;;;;;8.84;100.00;97270.31;4992633;28;20234;-72
2022/09/20 06:10:04;;;;;;;11.03;9.97;;;;;;;8.57;100.00;97265.13;4992546;28;20198;-71
2022/09/20 06:12:55;;;;;;;10.93;9.67;;;;;;;8.61;100.00;97270.72;4955777;28;20650;-70
2022/09/20 06:15:33;;;;;;;11.50;10.07;;;;;;;8.65;100.00;97280.56;4986013;28;20203;-70
2022/09/20 06:18:10;;;;;;;13.77;9.37;;;;;;;8.74;100.00;97275.94;4993474;28;20265;-71
2022/09/20 06:20:52;;;;;;;11.83;9.77;;;;;;;8.82;100.00;97280.16;4992705;28;20545;-72
2022/09/20 06:23:18;;;;;;;9.37;8.60;;;;;;;8.77;100.00;97281.56;4992602;28;20192;-72
2022/09/20 06:25:46;;;;;;;11.47;10.33;;;;;;;8.76;100.00;97285.19;4992475;28;20191;-71
2022/09/20 06:28:19;;;;;;;10.73;8.77;;;;;;;8.97;100.00;97278.91;4975513;28;20291;-70
2022/09/20 06:30:50;;;;;;;53.73;49.40;;;;;;;8.88;100.00;97280.16;5003747;28;20356;-70
2022/09/20 06:33:24;;;;;;;16.27;14.93;;;;;;;9.00;100.00;97282.94;4994268;28;20243;-71
2022/09/20 06:35:55;;;;;;;58.20;54.07;;;;;;;8.95;100.00;97280.13;4999699;28;20230;-70
2022/09/20 06:41:27;;;;;;;13.50;12.27;;;;;;;9.09;100.00;97279.09;5012664;28;20190;-71
2022/09/20 06:43:59;;;;;;;13.17;12.00;;;;;;;9.22;100.00;97291.34;5013074;28;20183;-71
2022/09/20 06:46:30;;;;;;;13.93;12.93;;;;;;;9.14;100.00;97295.78;5001484;28;20207;-72
2022/09/20 06:48:56;;;;;;;10.77;9.67;;;;;;;9.20;100.00;97296.78;4993536;28;20215;-71
2022/09/20 06:51:24;;;;;;;12.03;11.13;;;;;;;9.32;100.00;97299.56;4992979;28;20640;-71
2022/09/20 06:53:50;;;;;;;14.17;11.90;;;;;;;9.63;100.00;97304.09;4993472;28;20609;-71
2022/09/20 06:56:22;;;;;;;11.27;10.23;;;;;;;9.54;100.00;97306.13;5002240;28;20222;-72
2022/09/20 06:58:48;;;;;;;8.80;7.93;;;;;;;9.78;100.00;97304.63;5003554;28;20233;-72
2022/09/20 07:01:14;;;;;;;8.77;7.80;;;;;;;10.08;100.00;97308.31;5010789;28;20483;-71
2022/09/20 07:03:40;;;;;;;10.07;8.83;;;;;;;10.39;100.00;97308.34;4995281;28;20196;-71
2022/09/20 07:06:08;;;;;;;10.73;9.33;;;;;;;10.17;100.00;97314.13;4995034;28;20267;-71
2022/09/20 07:08:33;;;;;;;12.97;11.87;;;;;;;10.23;100.00;97305.44;5009916;28;20186;-72
2022/09/20 07:11:04;;;;;;;13.17;12.07;;;;;;;10.16;100.00;97305.47;5009373;28;20199;-72
2022/09/20 07:13:29;;;;;;;14.30;12.90;;;;;;;10.01;100.00;97310.16;4993178;28;20266;-73
2022/09/20 07:16:06;;;;;;;11.97;10.77;;;;;;;9.96;100.00;97307.38;4994932;28;20177;-72
2022/09/20 07:18:32;;;;;;;14.07;12.50;;;;;;;9.93;100.00;97310.41;5006291;28;20183;-72
2022/09/20 07:21:01;;;;;;;12.40;11.20;;;;;;;9.67;100.00;97313.13;5000526;28;20562;-72
2022/09/20 07:23:30;;;;;;;9.83;8.90;;;;;;;9.68;100.00;97325.22;4994143;28;20547;-72
2022/09/20 07:25:59;;;;;;;12.07;11.20;;;;;;;9.84;100.00;97320.31;5013808;28;20191;-72
2022/09/20 07:28:29;;;;;;;13.93;10.90;;;;;;;9.94;100.00;97327.72;5014822;28;20187;-72
2022/09/20 07:30:54;;;;;;;12.43;11.23;;;;;;;10.07;100.00;97326.84;4998420;28;20206;-72
2022/09/20 07:33:23;;;;;;;11.27;10.23;;;;;;;10.13;100.00;97333.88;5000449;28;20218;-72
2022/09/20 07:35:52;;;;;;;41.00;37.63;;;;;;;10.48;100.00;97326.44;4999327;28;20180;-72
2022/09/20 07:38:18;;;;;;;11.60;10.57;;;;;;;10.45;100.00;97329.47;4996417;28;20196;-72
2022/09/20 07:40:45;;;;;;;27.63;25.67;;;;;;;10.39;100.00;97331.13;5003187;28;20191;-72
2022/09/20 07:43:11;;;;;;;26.57;23.43;;;;;;;10.19;100.00;97326.00;5014571;28;20262;-71
2022/09/20 07:45:39;;;;;;;27.67;25.27;;;;;;;10.39;100.00;97328.50;4994816;28;20184;-72
2022/09/20 07:48:08;;;;;;;9.70;7.40;;;;;;;10.74;100.00;97327.03;4996503;28;20276;-72
2022/09/20 07:50:34;;;;;;;10.13;7.27;;;;;;;10.77;100.00;97329.22;5008411;28;20650;-72
2022/09/20 07:53:00;;;;;;;9.37;7.63;;;;;;;10.53;100.00;97337.91;5014987;28;20203;-72
2022/09/20 07:55:26;;;;;;;13.40;11.77;;;;;;;10.75;100.00;97347.00;5002656;28;20251;-72
2022/09/20 07:57:53;;;;;;;15.37;8.77;;;;;;;10.54;100.00;97343.91;5009531;28;20198;-72
2022/09/20 08:00:18;;;;;;;9.67;8.17;;;;;;;10.70;100.00;97335.56;5015101;28;20188;-71
2022/09/20 08:02:44;;;;;;;8.87;7.83;;;;;;;10.88;100.00;97340.84;5014209;28;20179;-72
2022/09/20 08:05:10;;;;;;;12.27;7.70;;;;;;;11.16;100.00;97341.19;4997968;28;20307;-72
2022/09/20 08:07:35;;;;;;;33.53;30.27;;;;;;;11.54;100.00;97340.19;5014875;28;20266;-73
2022/09/20 08:10:01;;;;;;;11.40;10.13;;;;;;;11.18;94.24;97343.59;5008686;28;20266;-71
2022/09/20 08:12:27;;;;;;;8.33;7.27;;;;;;;11.13;96.60;97348.69;5013046;28;20556;-71
2022/09/20 08:14:52;;;;;;;8.47;7.57;;;;;;;11.11;100.00;97348.09;5007689;28;20210;-71
2022/09/20 08:17:18;;;;;;;14.70;10.73;;;;;;;11.53;100.00;97354.38;5014250;28;20180;-72
2022/09/20 08:19:44;;;;;;;11.03;9.93;;;;;;;11.89;100.00;97350.94;5014647;28;20630;-72
2022/09/20 08:22:11;;;;;;;29.30;27.17;;;;;;;12.40;93.26;97356.53;5013693;28;20237;-70
2022/09/20 08:24:37;;;;;;;33.73;31.47;;;;;;;12.24;92.11;97353.75;5006700;28;20229;-70
2022/09/20 08:27:02;;;;;;;31.30;29.00;;;;;;;12.30;92.37;97350.22;5007176;28;20231;-70
2022/09/20 08:29:28;;;;;;;34.40;32.03;;;;;;;11.68;91.28;97357.44;5003085;28;20215;-71
2022/09/20 08:31:56;;;;;;;15.83;14.57;;;;;;;11.07;89.91;97355.63;5013693;28;20195;-73
2022/09/20 08:34:22;;;;;;;19.73;18.17;;;;;;;11.19;90.85;97353.09;5013678;28;20207;-72
2022/09/20 08:36:50;;;;;;;13.40;12.03;;;;;;;11.13;87.86;97364.44;5014976;28;20206;-74
2022/09/20 08:39:16;;;;;;;10.43;9.23;;;;;;;10.84;89.77;97363.28;5012547;28;20180;-72
2022/09/20 08:41:47;;;;;;;13.90;12.47;;;;;;;10.78;88.36;97366.75;5014227;28;20192;-72
2022/09/20 08:44:24;;;;;;;13.57;12.33;;;;;;;10.80;85.79;97367.34;5013241;28;20191;-73
2022/09/20 08:46:55;;;;;;;13.80;12.80;;;;;;;11.63;86.41;97350.22;4989961;28;20186;-72
2022/09/20 08:49:27;;;;;;;11.03;10.20;;;;;;;12.07;84.39;97348.31;5014293;28;20190;-70
2022/09/20 08:51:53;;;;;;;14.07;12.07;;;;;;;12.16;85.96;97354.03;5008929;28;20183;-70
2022/09/20 08:54:19;;;;;;;10.50;8.80;;;;;;;11.77;85.13;97363.22;5012922;28;20211;-70
2022/09/20 08:56:47;;;;;;;33.13;30.67;;;;;;;11.53;82.78;97362.25;5013951;28;20182;-72
2022/09/20 08:59:17;;;;;;;12.90;11.30;;;;;;;11.56;83.43;97359.16;5014067;28;20305;-70
2022/09/20 09:01:43;;;;;;;11.43;10.47;;;;;;;11.76;83.26;97346.63;5014466;28;20190;-70
2022/09/20 09:04:20;;;;;;;16.57;15.50;;;;;;;11.71;81.18;97356.16;5012783;28;20187;-70
2022/09/20 09:06:46;;;;;;;14.87;13.63;;;;;;;11.86;81.73;97354.84;5014067;28;20582;-70
2022/09/20 09:09:17;;;;;;;45.43;42.30;;;;;;;11.85;78.83;97353.22;4996905;28;20541;-70
2022/09/20 09:11:44;;;;;;;43.00;40.20;;;;;;;11.80;79.94;97352.28;5013899;28;20176;-71
2022/09/20 09:17:04;;;;;;;32.57;30.40;;;;;;;12.12;76.41;97347.63;5013556;28;20215;-70
2022/09/20 09:19:41;;;;;;;29.50;27.30;;;;;;;11.86;76.27;97348.78;5013915;28;20179;-70
2022/09/20 09:22:08;;;;;;;37.07;34.83;;;;;;;12.02;76.99;97346.34;5013740;28;20167;-70
2022/09/20 09:24:33;;;;;;;34.00;31.57;;;;;;;11.48;78.12;97348.97;5012498;28;20644;-70
2022/09/20 09:27:15;;;;;;;21.20;19.50;;;;;;;11.49;80.17;97353.97;5012746;28;20206;-70
2022/09/20 09:29:52;;;;;;;11.03;9.97;;;;;;;11.22;82.34;97352.66;5011469;28;20289;-70
2022/09/20 09:32:39;;;;;;;17.53;16.00;;;;;;;11.07;83.41;97358.22;5013731;28;20194;-70
2022/09/20 09:35:29;;;;;;;15.23;14.07;;;;;;;11.04;84.28;97349.97;5013140;28;20226;-70
2022/09/20 09:38:00;;;;;;;24.73;23.00;;;;;;;11.07;84.20;97350.38;5007944;28;20194;-70
2022/09/20 09:40:28;;;;;;;28.70;26.13;;;;;;;11.12;83.24;97360.22;5012367;28;20210;-70
2022/09/20 09:43:00;;;;;;;17.93;16.20;;;;;;;11.09;81.58;97350.16;5013631;28;20183;-70
2022/09/20 09:45:30;;;;;;;26.57;25.00;;;;;;;11.12;82.63;97352.34;5012977;28;20644;-70
2022/09/20 09:47:57;;;;;;;25.90;24.17;;;;;;;11.61;81.81;97348.81;5012796;28;20648;-71
2022/09/20 09:50:26;;;;;;;31.33;28.70;;;;;;;12.03;79.59;97345.31;5011633;28;20313;-70
2022/09/20 09:52:59;;;;;;;20.63;18.93;;;;;;;11.94;77.74;97349.25;5013225;28;20293;-70
2022/09/20 09:56:06;;;;;;;20.93;19.30;;;;;;;11.77;77.52;97347.44;5012826;28;20554;-70
2022/09/20 09:58:53;;;;;;;12.40;11.33;;;;;;;11.67;79.22;97343.50;4989779;28;20225;-70
2022/09/20 10:01:49;;;;;;;20.33;19.00;;;;;;;11.57;78.53;97350.28;5013148;28;20256;-70
2022/09/20 10:04:27;;;;;;;11.77;9.83;;;;;;;11.80;78.28;97345.19;5013220;28;20218;-71
2022/09/20 10:07:23;;;;;;;14.80;13.80;;;;;;;12.15;77.59;97345.34;5013225;28;20198;-70
2022/09/20 10:09:49;;;;;;;18.77;17.43;;;;;;;12.18;75.87;97342.28;4973918;28;20192;-70
2022/09/20 10:12:41;;;;;;;27.87;25.67;;;;;;;12.33;76.30;97347.13;4995513;28;20183;-70
2022/09/20 10:15:21;;;;;;;23.57;21.80;;;;;;;12.42;74.41;97346.63;5012608;28;20286;-71
2022/09/20 10:17:47;;;;;;;16.50;15.30;;;;;;;12.17;71.57;97345.13;5011661;28;20223;-71
2022/09/20 10:20:41;;;;;;;17.93;16.50;;;;;;;12.11;71.89;97346.03;5013126;28;20215;-70
2022/09/20 10:23:28;;;;;;;16.60;15.53;;;;;;;12.31;72.98;97342.13;4923430;28;20590;-71
2022/09/20 10:26:06;;;;;;;17.13;16.03;;;;;;;13.02;70.85;97338.59;5010722;28;20207;-71
2022/09/20 10:28:55;;;;;;;13.37;12.23;;;;;;;12.98;69.26;97331.41;4993635;28;20325;-69
2022/09/20 10:31:36;;;;;;;10.63;9.63;;;;;;;13.48;68.21;97339.66;5012664;28;20195;-69
2022/09/20 10:34:25;;;;;;;63.50;59.97;;;;;;;13.47;66.88;97332.78;5008811;28;20207;-69
2022/09/20 10:36:57;;;;;;;86.57;81.80;;;;;;;13.14;67.58;97334.19;5010168;28;20666;-69
2022/09/20 10:39:42;;;;;;;208.37;197.07;;;;;;;13.10;66.98;97340.88;4999303;28;20195;-69
2022/09/20 10:45:27;;;;;;;178.33;168.33;;;;;;;13.45;65.00;97335.63;4998240;28;20182;-69
2022/09/20 10:48:06;;;;;;;76.17;71.77;;;;;;;13.98;63.72;97340.69;5002712;28;20253;-69
2022/09/20 10:50:48;;;;;;;60.00;56.60;;;;;;;14.16;64.60;97334.41;5012185;28;20175;-70
2022/09/20 10:53:27;;;;;;;58.57;55.27;;;;;;;14.58;62.99;97337.59;5011994;28;20195;-69
2022/09/20 10:56:10;;;;;;;44.07;41.47;;;;;;;13.87;62.69;97335.44;5003783;28;20286;-69
2022/09/20 10:59:03;;;;;;;43.53;40.97;;;;;;;13.79;64.13;97328.69;5012492;28;20534;-69
2022/09/20 11:01:49;;;;;;;38.77;36.40;;;;;;;14.08;65.40;97330.34;5011458;28;20169;-70
2022/09/20 11:04:39;;;;;;;56.20;53.10;;;;;;;14.12;63.39;97331.47;4998795;28;20176;-70
2022/09/20 11:07:18;;;;;;;34.23;32.23;;;;;;;13.96;60.39;97336.69;5009956;28;20186;-70
2022/09/20 11:09:56;;;;;;;29.07;27.43;;;;;;;13.42;61.77;97337.94;5009904;28;20163;-71
2022/09/20 11:12:32;;;;;;;22.80;21.40;;;;;;;13.12;62.12;97332.78;5014385;28;20179;-70
2022/09/20 11:15:03;;;;;;;23.73;22.23;;;;;;;13.27;59.35;97341.81;5010003;28;20202;-70
2022/09/20 11:17:38;;;;;;;35.97;33.80;;;;;;;12.90;61.13;97340.41;4996959;28;20176;-70
2022/09/20 11:20:17;;;;;;;15.87;14.63;;;;;;;13.08;62.25;97329.78;4997194;28;20237;-69
2022/09/20 11:23:07;;;;;;;27.23;25.47;;;;;;;13.87;61.08;97332.81;5009516;28;20198;-70
2022/09/20 11:25:43;;;;;;;24.00;22.40;;;;;;;13.73;59.79;97327.00;5008017;28;20212;-70
2022/09/20 11:28:12;;;;;;;42.10;39.67;;;;;;;14.02;60.49;97328.63;5000115;28;20203;-70
2022/09/20 11:31:08;;;;;;;27.03;25.23;;;;;;;14.10;59.73;97332.72;5007054;28;20231;-70
2022/09/20 11:33:59;;;;;;;27.77;25.67;;;;;;;14.37;59.33;97331.16;5002506;28;20269;-71
2022/09/20 11:37:13;;;;;;;28.33;26.43;;;;;;;13.62;56.51;97323.34;5015766;28;20191;-70
2022/09/20 11:39:45;;;;;;;35.10;32.90;;;;;;;14.11;59.92;97326.41;4990011;28;20196;-70
2022/09/20 11:42:15;;;;;;;20.63;19.37;;;;;;;14.21;58.52;97315.28;4996633;28;20203;-70
2022/09/20 11:44:41;;;;;;;17.73;16.57;;;;;;;14.04;58.86;97316.00;4998376;28;20199;-71
2022/09/20 11:47:18;;;;;;;19.37;18.30;;;;;;;14.01;58.70;97319.13;5014798;28;20191;-69
2022/09/20 11:50:08;;;;;;;61.13;57.30;;;;;;;13.79;58.91;97320.00;4998872;28;20191;-69
2022/09/20 11:53:12;;;;;;;38.40;35.67;;;;;;;13.39;58.94;97325.22;4996403;28;20188;-70
2022/09/20 11:55:57;;;;;;;20.77;19.23;;;;;;;13.44;59.15;97320.06;5011714;28;20642;-70
2022/09/20 11:58:26;;;;;;;16.07;14.97;;;;;;;13.63;58.10;97324.16;5010603;28;20258;-70
2022/09/20 12:00:54;;;;;;;16.83;15.47;;;;;;;13.41;57.61;97326.59;4993014;28;20196;-71
2022/09/20 12:03:29;;;;;;;15.77;14.77;;;;;;;13.11;58.67;97323.25;5000850;28;20197;-70
2022/09/20 12:05:57;;;;;;;113.30;107.10;;;;;;;13.15;59.52;97325.22;5013447;28;20175;-70
2022/09/20 12:08:36;;;;;;;87.63;82.30;;;;;;;13.21;60.67;97318.25;5013820;28;20183;-70
2022/09/20 12:11:05;;;;;;;120.63;114.13;;;;;;;13.32;60.87;97318.25;5013986;28;20237;-70
2022/09/20 12:13:35;;;;;;;121.03;114.50;;;;;;;13.42;60.73;97320.31;5004617;28;20192;-70
2022/09/20 12:16:46;;;;;;;97.90;92.43;;;;;;;13.04;60.87;97312.06;4995492;28;20600;-70
2022/09/20 12:19:21;;;;;;;70.00;66.27;;;;;;;13.06;58.75;97310.78;4998461;28;20229;-70
2022/09/20 12:21:58;;;;;;;82.00;77.53;;;;;;;13.28;59.58;97309.22;5012906;28;20179;-72